createdAt,value
2019-01-28T00:01:38.695Z,91.35
2019-01-28T00:04:08.707Z,91.46
2019-01-28T00:06:38.340Z,91.79
2019-01-28T00:09:07.687Z,91.69
2019-01-28T00:11:37.309Z,91.69
2019-01-28T00:14:10.897Z,91.64
2019-01-28T00:16:40.977Z,91.71
2019-01-28T00:19:10.600Z,91.58
2019-01-28T00:21:42.630Z,91.50
2019-01-28T00:24:12.539Z,91.50
2019-01-28T00:26:43.535Z,91.49
2019-01-28T00:29:14.964Z,91.33
2019-01-28T00:31:44.658Z,91.34
2019-01-28T00:34:14.157Z,91.35
2019-01-28T00:36:44.659Z,91.59
2019-01-28T00:39:13.969Z,91.14
2019-01-28T00:41:43.458Z,91.34
2019-01-28T00:44:13.411Z,91.06
2019-01-28T00:46:43.427Z,90.97
2019-01-28T00:49:12.561Z,90.89
2019-01-28T00:51:42.159Z,91.01
2019-01-28T00:54:12.117Z,91.09
2019-01-28T00:56:41.610Z,91.22
2019-01-28T00:59:13.106Z,91.49
2019-01-28T01:01:43.089Z,91.19
2019-01-28T01:04:13.060Z,90.69
2019-01-28T01:06:43.443Z,90.41
2019-01-28T01:09:12.534Z,90.29
2019-01-28T01:11:45.075Z,90.04
2019-01-28T01:14:15.981Z,90.13
2019-01-28T01:16:45.775Z,89.85
2019-01-28T01:19:15.141Z,89.67
2019-01-28T01:21:46.124Z,90.20
2019-01-28T01:24:17.404Z,90.26
2019-01-28T01:26:51.197Z,90.33
2019-01-28T01:29:21.291Z,90.08
2019-01-28T01:31:51.199Z,90.20
2019-01-28T01:34:21.385Z,90.24
2019-01-28T01:36:52.511Z,90.12
2019-01-28T01:39:22.598Z,90.39
2019-01-28T01:41:55.083Z,90.50
2019-01-28T01:44:24.371Z,91.24
2019-01-28T01:46:53.983Z,91.58
2019-01-28T01:49:25.334Z,92.10
2019-01-28T01:51:54.766Z,92.29
2019-01-28T01:54:24.357Z,92.25
2019-01-28T01:56:55.452Z,92.17
2019-01-28T01:59:26.000Z,91.81
2019-01-28T02:01:55.717Z,92.03
2019-01-28T02:04:25.678Z,91.95
2019-01-28T02:06:55.418Z,92.36
2019-01-28T02:09:31.757Z,92.36
2019-01-28T02:12:02.314Z,92.06
2019-01-28T02:14:32.004Z,91.67
2019-01-28T02:17:01.581Z,92.15
2019-01-28T02:19:32.879Z,92.48
2019-01-28T02:22:02.393Z,92.19
2019-01-28T02:24:31.930Z,92.12
2019-01-28T02:27:01.820Z,92.07
2019-01-28T02:29:31.929Z,92.06
2019-01-28T02:32:01.240Z,91.71
2019-01-28T02:34:31.661Z,92.22
2019-01-28T02:37:02.649Z,92.30
2019-01-28T02:39:32.522Z,92.56
2019-01-28T02:42:02.134Z,92.46
2019-01-28T02:44:32.272Z,92.76
2019-01-28T02:47:03.865Z,92.69
2019-01-28T02:49:34.325Z,92.73
2019-01-28T02:52:03.880Z,92.49
2019-01-28T02:54:33.564Z,92.38
2019-01-28T02:57:02.880Z,92.37
2019-01-28T02:59:32.803Z,92.71
2019-01-28T03:02:56.808Z,92.37
2019-01-28T03:05:57.271Z,92.45
2019-01-28T03:08:43.955Z,92.83
2019-01-28T03:11:30.770Z,92.55
2019-01-28T03:14:18.189Z,93.04
2019-01-28T03:17:08.403Z,92.90
2019-01-28T03:19:55.091Z,92.90
2019-01-28T03:22:41.893Z,92.97
2019-01-28T03:25:28.781Z,92.75
2019-01-28T03:28:15.446Z,92.59
2019-01-28T03:30:44.627Z,92.66
2019-01-28T03:33:13.074Z,92.63
2019-01-28T03:35:41.128Z,92.56
2019-01-28T03:38:10.162Z,92.45
2019-01-28T03:40:38.916Z,92.68
2019-01-28T03:43:08.499Z,92.38
2019-01-28T03:45:36.946Z,92.14
2019-01-28T03:48:05.292Z,92.21
2019-01-28T03:50:34.378Z,92.10
2019-01-28T03:53:02.913Z,92.37
2019-01-28T03:55:31.723Z,92.37
2019-01-28T03:58:00.181Z,92.50
2019-01-28T04:03:32.357Z,93.09
2019-01-28T04:06:18.772Z,93.67
2019-01-28T04:09:08.178Z,93.39
2019-01-28T04:11:54.918Z,94.08
2019-01-28T04:14:41.406Z,93.98
2019-01-28T04:17:27.741Z,94.13
2019-01-28T04:20:15.524Z,94.20
2019-01-28T04:23:01.873Z,94.16
2019-01-28T04:25:48.192Z,94.47
2019-01-28T04:28:35.301Z,94.65
2019-01-28T04:31:03.839Z,94.82
2019-01-28T04:33:32.756Z,95.04
2019-01-28T04:36:01.117Z,95.34
2019-01-28T04:38:29.780Z,95.34
2019-01-28T04:40:58.604Z,95.56
2019-01-28T04:43:27.733Z,95.38
2019-01-28T04:45:56.213Z,95.48
2019-01-28T04:48:24.590Z,95.46
2019-01-28T04:50:53.180Z,95.37
2019-01-28T04:53:21.754Z,95.35
2019-01-28T04:55:50.118Z,95.41
2019-01-28T04:58:18.415Z,95.60
2019-01-28T05:00:46.712Z,95.57
2019-01-28T05:03:15.698Z,95.76
2019-01-28T05:05:44.227Z,95.69
2019-01-28T05:08:13.002Z,95.93
2019-01-28T05:10:41.364Z,96.29
2019-01-28T05:13:09.597Z,96.60
2019-01-28T05:15:39.184Z,96.91
2019-01-28T05:18:07.759Z,96.87
2019-01-28T05:20:36.072Z,97.12
2019-01-28T05:23:04.791Z,97.31
2019-01-28T05:25:33.921Z,97.36
2019-01-28T05:28:04.220Z,97.42
2019-01-28T05:30:33.204Z,97.54
2019-01-28T05:33:01.937Z,97.82
2019-01-28T05:35:30.139Z,98.04
2019-01-28T05:37:58.709Z,98.21
2019-01-28T05:40:26.998Z,98.37
2019-01-28T05:42:55.274Z,98.52
2019-01-28T05:45:24.259Z,98.51
2019-01-28T05:47:52.828Z,98.65
2019-01-28T05:50:21.122Z,98.64
2019-01-28T05:52:49.390Z,98.70
2019-01-28T05:55:21.931Z,98.69
2019-01-28T05:57:50.500Z,98.74
2019-01-28T06:00:22.950Z,98.90
2019-01-28T06:02:51.656Z,98.88
2019-01-28T06:05:20.361Z,98.95
2019-01-28T06:07:48.773Z,99.01
2019-01-28T06:10:17.096Z,99.06
2019-01-28T06:12:45.540Z,99.16
2019-01-28T06:15:15.345Z,99.26
2019-01-28T06:17:44.338Z,99.33
2019-01-28T06:20:18.378Z,99.41
2019-01-28T06:22:50.836Z,99.43
2019-01-28T06:25:19.896Z,99.45
2019-01-28T06:27:48.984Z,99.48
2019-01-28T06:30:22.997Z,99.53
2019-01-28T06:32:52.316Z,99.52
2019-01-28T06:35:21.278Z,99.50
2019-01-28T06:37:51.822Z,99.49
2019-01-28T06:40:25.163Z,99.51
2019-01-28T06:42:53.534Z,99.52
2019-01-28T06:45:22.308Z,99.56
2019-01-28T06:47:50.548Z,99.66
2019-01-28T06:50:19.553Z,99.74
2019-01-28T06:52:47.885Z,99.77
2019-01-28T06:55:17.002Z,99.73
2019-01-28T06:57:45.490Z,99.87
2019-01-28T07:00:19.785Z,99.91
2019-01-28T07:02:48.103Z,100.00
2019-01-28T07:05:16.381Z,100.00
2019-01-28T07:07:44.669Z,100.00
2019-01-28T07:10:14.456Z,100.00
2019-01-28T07:12:43.578Z,100.00
2019-01-28T07:15:13.605Z,100.00
2019-01-28T07:17:42.058Z,100.00
2019-01-28T07:20:13.729Z,100.00
2019-01-28T07:22:42.730Z,100.00
2019-01-28T07:25:11.063Z,100.00
2019-01-28T07:27:39.319Z,100.00
2019-01-28T07:30:10.044Z,100.00
2019-01-28T07:32:38.288Z,100.00
2019-01-28T07:35:07.114Z,100.00
2019-01-28T07:37:35.878Z,99.97
2019-01-28T07:40:04.917Z,100.00
2019-01-28T07:42:33.097Z,100.00
2019-01-28T07:45:01.749Z,99.93
2019-01-28T07:47:30.446Z,99.95
2019-01-28T07:49:58.970Z,99.88
2019-01-28T07:52:27.057Z,99.88
2019-01-28T07:54:55.756Z,99.86
2019-01-28T07:57:23.987Z,99.80
2019-01-28T07:59:52.399Z,99.80
2019-01-28T08:02:21.272Z,99.76
2019-01-28T08:05:07.457Z,99.77
2019-01-28T08:07:35.559Z,99.78
2019-01-28T08:10:05.971Z,99.82
2019-01-28T08:12:34.828Z,99.87
2019-01-28T08:15:05.216Z,99.87
2019-01-28T08:17:33.519Z,99.90
2019-01-28T08:20:01.929Z,99.93
2019-01-28T08:22:30.378Z,99.84
2019-01-28T08:24:58.717Z,99.84
2019-01-28T08:27:27.573Z,99.91
2019-01-28T08:29:55.798Z,99.88
2019-01-28T08:32:24.677Z,99.88
2019-01-28T08:34:53.023Z,99.67
2019-01-28T08:37:21.554Z,100.00
2019-01-28T08:39:49.796Z,99.89
2019-01-28T08:42:19.061Z,99.95
2019-01-28T08:44:47.665Z,100.00
2019-01-28T08:47:15.905Z,100.00
2019-01-28T08:49:44.206Z,99.92
2019-01-28T08:52:13.100Z,99.96
2019-01-28T08:54:41.593Z,99.96
2019-01-28T08:57:10.708Z,99.90
2019-01-28T08:59:41.337Z,99.91
2019-01-28T09:02:10.235Z,100.00
2019-01-28T09:04:38.611Z,100.00
2019-01-28T09:07:09.048Z,99.96
2019-01-28T09:09:40.214Z,99.93
2019-01-28T09:12:10.336Z,99.97
2019-01-28T09:14:38.819Z,99.96
2019-01-28T09:17:08.783Z,99.91
2019-01-28T09:19:37.289Z,99.91
2019-01-28T09:22:05.827Z,99.76
2019-01-28T09:24:34.541Z,99.73
2019-01-28T09:27:03.153Z,99.77
2019-01-28T09:29:34.036Z,99.73
2019-01-28T09:32:03.177Z,99.67
2019-01-28T09:34:31.546Z,99.53
2019-01-28T09:36:59.993Z,99.57
2019-01-28T09:39:29.637Z,99.70
2019-01-28T09:41:58.376Z,99.77
2019-01-28T09:44:27.271Z,100.00
2019-01-28T09:46:55.518Z,100.00
2019-01-28T09:49:24.127Z,100.00
2019-01-28T09:51:52.620Z,100.00
2019-01-28T09:54:22.804Z,100.00
2019-01-28T09:56:51.661Z,100.00
2019-01-28T09:59:20.203Z,100.00
2019-01-28T10:01:48.414Z,100.00
2019-01-28T10:04:16.594Z,100.00
2019-01-28T10:06:45.349Z,100.00
2019-01-28T10:09:14.471Z,100.00
2019-01-28T10:11:43.421Z,100.00
2019-01-28T10:14:11.759Z,100.00
2019-01-28T10:16:40.923Z,100.00
2019-01-28T10:19:09.391Z,100.00
2019-01-28T10:21:45.664Z,100.00
2019-01-28T10:24:26.070Z,100.00
2019-01-28T10:26:55.339Z,100.00
2019-01-28T10:29:23.866Z,100.00
2019-01-28T10:31:52.002Z,100.00
2019-01-28T10:34:20.488Z,99.86
2019-01-28T10:36:48.737Z,99.78
2019-01-28T10:39:16.832Z,99.79
2019-01-28T10:41:45.101Z,99.69
2019-01-28T10:44:13.576Z,99.53
2019-01-28T10:46:41.663Z,99.46
2019-01-28T10:49:11.762Z,99.35
2019-01-28T10:51:40.395Z,99.29
2019-01-28T10:54:09.128Z,99.19
2019-01-28T10:56:38.544Z,98.91
2019-01-28T10:59:06.793Z,98.67
2019-01-28T11:01:35.317Z,98.58
2019-01-28T11:04:03.689Z,98.47
2019-01-28T11:06:32.547Z,98.45
2019-01-28T11:09:01.300Z,98.31
2019-01-28T11:11:29.702Z,98.11
2019-01-28T11:13:57.900Z,97.93
2019-01-28T11:16:26.127Z,97.75
2019-01-28T11:18:58.733Z,97.51
2019-01-28T11:21:27.207Z,97.12
2019-01-28T11:23:56.215Z,97.00
2019-01-28T11:26:25.129Z,96.91
2019-01-28T11:28:53.427Z,96.88
2019-01-28T11:31:21.939Z,96.94
2019-01-28T11:33:55.329Z,97.01
2019-01-28T11:36:26.931Z,96.88
2019-01-28T11:38:55.601Z,96.71
2019-01-28T11:41:24.347Z,96.60
2019-01-28T11:43:53.054Z,96.41
2019-01-28T11:46:21.279Z,96.43
2019-01-28T11:48:50.301Z,96.37
2019-01-28T11:51:18.544Z,96.37
2019-01-28T11:53:47.613Z,96.34
2019-01-28T11:56:16.399Z,96.12
2019-01-28T11:58:45.414Z,96.09
2019-01-28T12:01:24.440Z,95.87
2019-01-28T12:03:52.767Z,95.85
2019-01-28T12:06:21.025Z,95.50
2019-01-28T12:08:49.472Z,95.11
2019-01-28T12:11:18.501Z,94.62
2019-01-28T12:13:47.097Z,94.37
2019-01-28T12:16:17.195Z,94.55
2019-01-28T12:18:47.073Z,94.46
2019-01-28T12:24:58.355Z,94.46
2019-01-28T12:27:46.301Z,94.98
2019-01-28T12:42:43.038Z,95.22
2019-01-28T12:48:59.184Z,94.85
2019-01-28T12:51:46.689Z,94.70
2019-01-28T12:54:34.425Z,94.64
2019-01-28T13:03:27.027Z,94.29
2019-01-28T13:09:04.675Z,94.37
2019-01-28T13:11:53.799Z,94.25
2019-01-28T13:21:20.812Z,94.80
2019-01-28T13:24:07.889Z,95.90
2019-01-28T13:26:55.524Z,96.21
2019-01-28T13:39:13.157Z,96.40
2019-01-28T13:42:00.297Z,96.46
2019-01-28T13:50:59.042Z,97.37
2019-01-28T13:53:57.082Z,96.99
2019-01-28T13:56:45.456Z,97.22
2019-01-28T13:59:32.509Z,97.19
2019-01-28T14:05:03.741Z,97.46
2019-01-28T14:07:52.952Z,97.44
2019-01-28T14:10:50.833Z,97.44
2019-01-28T14:13:37.256Z,97.42
2019-01-28T14:22:31.879Z,97.43
2019-01-28T14:25:22.150Z,97.35
2019-01-28T14:28:11.011Z,97.40
2019-01-28T14:34:39.797Z,97.51
2019-01-28T14:40:31.000Z,97.59
2019-01-28T14:43:22.318Z,97.35
2019-01-28T14:46:11.453Z,96.94
2019-01-28T14:52:55.404Z,96.81
2019-01-28T14:58:47.078Z,96.75
2019-01-28T15:01:34.626Z,96.57
2019-01-28T15:04:09.679Z,96.23
2019-01-28T15:06:38.253Z,96.52
2019-01-28T15:09:11.221Z,96.78
2019-01-28T15:11:42.325Z,97.00
2019-01-28T15:14:11.470Z,97.21
2019-01-28T15:16:42.424Z,97.43
2019-01-28T15:19:17.595Z,97.25
2019-01-28T15:21:48.922Z,97.31
2019-01-28T15:24:18.337Z,97.25
2019-01-28T15:26:47.677Z,97.20
2019-01-28T15:29:18.840Z,96.91
2019-01-28T15:31:48.421Z,95.99
2019-01-28T15:34:21.105Z,96.14
2019-01-28T15:36:53.112Z,95.89
2019-01-28T15:39:28.035Z,95.79
2019-01-28T15:41:57.206Z,96.00
2019-01-28T15:44:28.013Z,95.98
2019-01-28T15:46:57.059Z,96.40
2019-01-28T15:49:29.384Z,96.40
2019-01-28T15:52:00.483Z,96.67
2019-01-28T15:54:30.787Z,96.60
2019-01-28T15:57:03.060Z,96.93
2019-01-28T15:59:35.259Z,96.82
2019-01-28T16:02:06.213Z,96.71
2019-01-28T16:10:43.954Z,96.90
2019-01-28T16:13:30.846Z,97.07
2019-01-28T16:16:18.167Z,96.86
2019-01-28T16:21:53.859Z,97.44
2019-01-28T16:24:40.220Z,97.70
2019-01-28T16:27:28.239Z,98.01
2019-01-28T16:30:18.170Z,98.04
2019-01-28T16:36:02.561Z,98.06
2019-01-28T16:38:48.693Z,98.26
2019-01-28T16:41:35.681Z,98.35
2019-01-28T16:44:22.421Z,98.24
2019-01-28T16:50:09.767Z,98.00
2019-01-28T16:52:57.677Z,98.00
2019-01-28T16:56:43.780Z,98.01
2019-01-28T16:59:40.849Z,98.01
2019-01-28T17:02:10.399Z,97.86
2019-01-28T17:04:38.562Z,97.83
2019-01-28T17:07:07.262Z,97.88
2019-01-28T17:09:36.483Z,97.72
2019-01-28T17:12:08.116Z,97.83
2019-01-28T17:14:36.487Z,97.97
2019-01-28T17:17:05.037Z,98.02
2019-01-28T17:19:33.340Z,97.93
2019-01-28T17:22:01.437Z,97.89
2019-01-28T17:24:30.993Z,97.87
2019-01-28T17:26:59.085Z,97.83
2019-01-28T17:29:28.689Z,97.70
2019-01-28T17:31:57.036Z,97.45
2019-01-28T17:34:25.639Z,97.40
2019-01-28T17:36:54.561Z,97.27
2019-01-28T17:39:25.534Z,97.27
2019-01-28T17:41:55.669Z,97.19
2019-01-28T17:44:24.565Z,97.23
2019-01-28T17:46:53.362Z,97.06
2019-01-28T17:49:22.293Z,96.93
2019-01-28T17:51:50.358Z,96.88
2019-01-28T17:54:19.033Z,96.88
2019-01-28T17:56:48.060Z,96.96
2019-01-28T17:59:16.390Z,97.00
2019-01-28T18:01:45.463Z,97.18
2019-01-28T18:04:25.871Z,97.48
2019-01-28T18:06:54.878Z,97.43
2019-01-28T18:09:23.331Z,97.53
2019-01-28T18:11:52.232Z,97.53
2019-01-28T18:14:21.225Z,97.40
2019-01-28T18:16:50.010Z,97.45
2019-01-28T18:19:19.505Z,97.44
2019-01-28T18:21:48.042Z,97.35
2019-01-28T18:24:16.286Z,97.34
2019-01-28T18:26:44.824Z,97.24
2019-01-28T18:29:13.406Z,97.10
2019-01-28T18:31:42.023Z,97.01
2019-01-28T18:34:10.114Z,96.76
2019-01-28T18:36:40.038Z,96.68
2019-01-28T18:39:12.286Z,96.75
2019-01-28T18:41:42.956Z,96.51
2019-01-28T18:44:12.863Z,96.18
2019-01-28T18:46:41.222Z,95.94
2019-01-28T18:49:09.243Z,96.01
2019-01-28T18:51:41.968Z,95.95
2019-01-28T18:54:11.360Z,96.02
2019-01-28T18:56:39.842Z,95.90
2019-01-28T18:59:09.678Z,95.64
2019-01-28T19:01:40.695Z,95.63
2019-01-28T19:04:13.479Z,95.48
2019-01-28T19:07:10.937Z,95.49
2019-01-28T19:10:01.231Z,95.42
2019-01-28T19:12:41.895Z,95.39
2019-01-28T19:15:23.588Z,95.05
2019-01-28T19:18:14.290Z,94.68
2019-01-28T19:21:08.194Z,94.66
2019-01-28T19:23:35.380Z,94.37
2019-01-28T19:26:04.882Z,94.31
2019-01-28T19:28:33.497Z,94.27
2019-01-28T19:31:02.153Z,94.23
2019-01-28T19:33:30.725Z,93.97
2019-01-28T19:35:59.460Z,93.83
2019-01-28T19:38:28.154Z,93.84
2019-01-28T19:40:56.490Z,94.07
2019-01-28T19:43:26.536Z,93.87
2019-01-28T19:45:55.359Z,93.87
2019-01-28T19:48:23.595Z,93.43
2019-01-28T19:50:54.076Z,93.39
2019-01-28T19:53:22.497Z,93.56
2019-01-28T19:55:50.852Z,93.43
2019-01-28T19:58:19.555Z,93.36
2019-01-28T20:00:49.271Z,93.32
2019-01-28T20:03:17.675Z,93.28
2019-01-28T20:05:45.793Z,93.38
2019-01-28T20:08:15.124Z,93.53
2019-01-28T20:10:43.327Z,93.85
2019-01-28T20:13:11.837Z,94.05
2019-01-28T20:15:40.578Z,94.24
2019-01-28T20:18:09.975Z,94.35
2019-01-28T20:20:39.758Z,94.66
2019-01-28T20:23:07.890Z,94.80
2019-01-28T20:25:37.094Z,94.86
2019-01-28T20:28:05.820Z,94.73
2019-01-28T20:30:34.337Z,94.65
2019-01-28T20:33:02.724Z,94.62
2019-01-28T20:35:30.758Z,94.65
2019-01-28T20:38:15.577Z,94.70
2019-01-28T20:40:49.970Z,94.85
2019-01-28T20:43:24.175Z,94.76
2019-01-28T20:45:53.079Z,94.74
2019-01-28T20:48:21.933Z,94.79
2019-01-28T20:50:50.691Z,94.88
2019-01-28T20:53:19.847Z,94.85
2019-01-28T20:55:49.199Z,94.91
2019-01-28T20:58:19.347Z,94.89
2019-01-28T21:00:50.775Z,94.84
2019-01-28T21:03:24.823Z,94.95
2019-01-28T21:05:53.625Z,94.72
2019-01-28T21:08:23.690Z,94.68
2019-01-28T21:10:51.982Z,94.77
2019-01-28T21:13:21.154Z,94.92
2019-01-28T21:15:50.377Z,95.10
2019-01-28T21:18:18.680Z,95.36
2019-01-28T21:20:46.938Z,95.34
2019-01-28T21:23:15.525Z,95.38
2019-01-28T21:25:44.206Z,95.78
2019-01-28T21:28:12.389Z,95.91
2019-01-28T21:30:40.541Z,96.38
2019-01-28T21:33:09.012Z,96.52
2019-01-28T21:35:57.200Z,96.75
2019-01-28T21:38:30.287Z,96.94
2019-01-28T21:40:58.972Z,96.95
2019-01-28T21:43:29.347Z,97.03
2019-01-28T21:45:58.783Z,97.13
2019-01-28T21:48:27.679Z,97.00
2019-01-28T21:50:56.143Z,96.93
2019-01-28T21:53:25.490Z,96.82
2019-01-28T21:55:53.536Z,96.75
2019-01-28T21:58:22.592Z,96.48
2019-01-28T22:00:51.003Z,96.35
2019-01-28T22:03:20.003Z,96.38
2019-01-28T22:05:48.795Z,96.44
2019-01-28T22:08:17.505Z,96.58
2019-01-28T22:10:47.090Z,96.57
2019-01-28T22:13:15.374Z,96.50
2019-01-28T22:15:44.448Z,96.57
2019-01-28T22:18:13.460Z,96.85
2019-01-28T22:20:42.826Z,96.80
2019-01-28T22:23:11.324Z,96.92
2019-01-28T22:25:39.553Z,97.03
2019-01-28T22:28:08.020Z,97.00
2019-01-28T22:30:37.224Z,96.91
2019-01-28T22:33:08.932Z,97.19
2019-01-28T22:35:36.138Z,97.31
2019-01-28T22:38:05.154Z,97.35
2019-01-28T22:40:33.634Z,97.48
2019-01-28T22:43:01.828Z,97.68
2019-01-28T22:45:30.227Z,97.61
2019-01-28T22:48:00.655Z,97.61
2019-01-28T22:50:28.925Z,97.29
2019-01-28T22:52:57.398Z,97.29
2019-01-28T22:55:26.275Z,97.83
2019-01-28T22:57:54.408Z,98.06
2019-01-28T23:00:58.196Z,98.18
2019-01-28T23:03:28.405Z,98.11
2019-01-28T23:05:57.096Z,98.08
2019-01-28T23:08:28.622Z,98.17
2019-01-28T23:10:56.817Z,98.17
2019-01-28T23:13:25.513Z,98.28
2019-01-28T23:15:53.558Z,98.59
2019-01-28T23:18:22.423Z,98.59
2019-01-28T23:20:51.346Z,98.72
2019-01-28T23:23:19.839Z,98.96
2019-01-28T23:25:48.300Z,98.96
2019-01-28T23:28:16.798Z,98.78
2019-01-28T23:30:44.999Z,98.70
2019-01-28T23:33:13.106Z,98.69
2019-01-28T23:35:41.464Z,98.90
2019-01-28T23:38:10.505Z,98.95
2019-01-28T23:40:38.952Z,98.95
2019-01-28T23:43:07.481Z,98.92
2019-01-28T23:45:36.484Z,98.91
2019-01-28T23:48:05.636Z,98.99
2019-01-28T23:50:34.543Z,98.99
2019-01-28T23:53:02.737Z,99.02
2019-01-28T23:55:31.271Z,99.28
2019-01-28T23:57:59.686Z,99.28
